<?xml version="1.0" encoding="UTF-8" standalone="no" ?>
<gpx xmlns="http://www.topografix.com/GPX/1/1" xmlns:xsi="http://www.w3.org/2001/XMLSchema-instance" xsi:schemaLocation="http://www.topografix.com/GPX/1/1 http://www.topografix.com/GPX/1/1/gpx.xsd" version="1.1" creator="VisuGPX - https://www.visugpx.com">
  <metadata>
    <name>2025-02-13-46-St Michel de Cours</name>
    <desc><![CDATA[Randonnée de 10 km pour environ 200 m de dénivelé positif ; une longue descente vous mènera par de larges chemins vers le ruisseau de La Rauze aux eaux translucides, nous allons le suivre un petit moment avec ses multiples embranchements et petites cascades. A voir au passage le château de Gironde et l'ancien moulin de Maquefave avant de prendre le chemin du retour dans une foret où les arbres moussus offrent un décor étrange. ]]></desc>
  </metadata>
  <trk>
    <name><![CDATA[2025-02-13- St Michel de Cours 10km-20699417]]></name>
    <trkseg>
      <trkpt lat="44.52958" lon="1.52502">
        <ele>339</ele>
        <time>2025-02-13T18:00:55Z</time>
      </trkpt>
      <trkpt lat="44.52949" lon="1.52522">
        <ele>339</ele>
        <time>2025-02-13T18:01:18Z</time>
      </trkpt>
      <trkpt lat="44.52942" lon="1.52529">
        <ele>339</ele>
        <time>2025-02-13T18:01:29Z</time>
      </trkpt>
      <trkpt lat="44.52943" lon="1.52527">
        <ele>339</ele>
        <time>2025-02-13T18:01:31Z</time>
      </trkpt>
      <trkpt lat="44.52942" lon="1.52553">
        <ele>339</ele>
        <time>2025-02-13T18:01:56Z</time>
      </trkpt>
      <trkpt lat="44.52944" lon="1.52557">
        <ele>339</ele>
        <time>2025-02-13T18:02:01Z</time>
      </trkpt>
      <trkpt lat="44.52963" lon="1.5256">
        <ele>340</ele>
        <time>2025-02-13T18:02:26Z</time>
      </trkpt>
      <trkpt lat="44.52974" lon="1.52577">
        <ele>341</ele>
        <time>2025-02-13T18:02:48Z</time>
      </trkpt>
      <trkpt lat="44.52977" lon="1.52606">
        <ele>340</ele>
        <time>2025-02-13T18:03:16Z</time>
      </trkpt>
      <trkpt lat="44.52977" lon="1.52704">
        <ele>338</ele>
        <time>2025-02-13T18:04:49Z</time>
      </trkpt>
      <trkpt lat="44.52979" lon="1.52732">
        <ele>337</ele>
        <time>2025-02-13T18:05:16Z</time>
      </trkpt>
      <trkpt lat="44.52992" lon="1.52824">
        <ele>333</ele>
        <time>2025-02-13T18:06:45Z</time>
      </trkpt>
      <trkpt lat="44.53003" lon="1.52866">
        <ele>328</ele>
        <time>2025-02-13T18:07:28Z</time>
      </trkpt>
      <trkpt lat="44.53007" lon="1.52888">
        <ele>326</ele>
        <time>2025-02-13T18:07:49Z</time>
      </trkpt>
      <trkpt lat="44.53007" lon="1.52931">
        <ele>322</ele>
        <time>2025-02-13T18:08:30Z</time>
      </trkpt>
      <trkpt lat="44.53001" lon="1.5296">
        <ele>321</ele>
        <time>2025-02-13T18:08:59Z</time>
      </trkpt>
      <trkpt lat="44.5299" lon="1.5298">
        <ele>320</ele>
        <time>2025-02-13T18:09:23Z</time>
      </trkpt>
      <trkpt lat="44.52982" lon="1.53002">
        <ele>320</ele>
        <time>2025-02-13T18:09:46Z</time>
      </trkpt>
      <trkpt lat="44.52977" lon="1.53066">
        <ele>318</ele>
        <time>2025-02-13T18:10:48Z</time>
      </trkpt>
      <trkpt lat="44.52968" lon="1.53115">
        <ele>316</ele>
        <time>2025-02-13T18:11:36Z</time>
      </trkpt>
      <trkpt lat="44.52962" lon="1.53187">
        <ele>314</ele>
        <time>2025-02-13T18:12:45Z</time>
      </trkpt>
      <trkpt lat="44.52949" lon="1.53208">
        <ele>313</ele>
        <time>2025-02-13T18:13:11Z</time>
      </trkpt>
      <trkpt lat="44.5294" lon="1.53228">
        <ele>312</ele>
        <time>2025-02-13T18:13:34Z</time>
      </trkpt>
      <trkpt lat="44.52918" lon="1.5331">
        <ele>310</ele>
        <time>2025-02-13T18:14:57Z</time>
      </trkpt>
      <trkpt lat="44.52916" lon="1.53339">
        <ele>309</ele>
        <time>2025-02-13T18:15:25Z</time>
      </trkpt>
      <trkpt lat="44.5291" lon="1.5339">
        <ele>306</ele>
        <time>2025-02-13T18:16:14Z</time>
      </trkpt>
      <trkpt lat="44.52905" lon="1.53495">
        <ele>298</ele>
        <time>2025-02-13T18:17:54Z</time>
      </trkpt>
      <trkpt lat="44.52902" lon="1.53507">
        <ele>298</ele>
        <time>2025-02-13T18:18:06Z</time>
      </trkpt>
      <trkpt lat="44.52894" lon="1.53526">
        <ele>297</ele>
        <time>2025-02-13T18:18:27Z</time>
      </trkpt>
      <trkpt lat="44.52876" lon="1.53564">
        <ele>297</ele>
        <time>2025-02-13T18:19:11Z</time>
      </trkpt>
      <trkpt lat="44.52871" lon="1.53581">
        <ele>296</ele>
        <time>2025-02-13T18:19:28Z</time>
      </trkpt>
      <trkpt lat="44.52873" lon="1.53606">
        <ele>299</ele>
        <time>2025-02-13T18:19:52Z</time>
      </trkpt>
      <trkpt lat="44.52904" lon="1.53647">
        <ele>301</ele>
        <time>2025-02-13T18:20:49Z</time>
      </trkpt>
      <trkpt lat="44.52919" lon="1.53691">
        <ele>306</ele>
        <time>2025-02-13T18:21:35Z</time>
      </trkpt>
      <trkpt lat="44.52931" lon="1.53711">
        <ele>308</ele>
        <time>2025-02-13T18:22:00Z</time>
      </trkpt>
      <trkpt lat="44.52932" lon="1.53725">
        <ele>310</ele>
        <time>2025-02-13T18:22:14Z</time>
      </trkpt>
      <trkpt lat="44.5294" lon="1.5376">
        <ele>313</ele>
        <time>2025-02-13T18:22:49Z</time>
      </trkpt>
      <trkpt lat="44.52956" lon="1.53812">
        <ele>317</ele>
        <time>2025-02-13T18:23:42Z</time>
      </trkpt>
      <trkpt lat="44.5298" lon="1.53871">
        <ele>321</ele>
        <time>2025-02-13T18:24:47Z</time>
      </trkpt>
      <trkpt lat="44.52992" lon="1.53896">
        <ele>322</ele>
        <time>2025-02-13T18:25:16Z</time>
      </trkpt>
      <trkpt lat="44.53005" lon="1.53932">
        <ele>324</ele>
        <time>2025-02-13T18:25:54Z</time>
      </trkpt>
      <trkpt lat="44.53018" lon="1.53974">
        <ele>324</ele>
        <time>2025-02-13T18:26:38Z</time>
      </trkpt>
      <trkpt lat="44.53033" lon="1.5401">
        <ele>325</ele>
        <time>2025-02-13T18:27:17Z</time>
      </trkpt>
      <trkpt lat="44.53047" lon="1.54032">
        <ele>326</ele>
        <time>2025-02-13T18:27:45Z</time>
      </trkpt>
      <trkpt lat="44.53062" lon="1.54049">
        <ele>327</ele>
        <time>2025-02-13T18:28:11Z</time>
      </trkpt>
      <trkpt lat="44.53073" lon="1.54061">
        <ele>329</ele>
        <time>2025-02-13T18:28:30Z</time>
      </trkpt>
      <trkpt lat="44.53087" lon="1.54069">
        <ele>329</ele>
        <time>2025-02-13T18:28:50Z</time>
      </trkpt>
      <trkpt lat="44.53083" lon="1.54069">
        <ele>329</ele>
        <time>2025-02-13T18:28:55Z</time>
      </trkpt>
      <trkpt lat="44.53088" lon="1.54069">
        <ele>329</ele>
        <time>2025-02-13T18:29:02Z</time>
      </trkpt>
      <trkpt lat="44.53088" lon="1.54073">
        <ele>330</ele>
        <time>2025-02-13T18:29:06Z</time>
      </trkpt>
      <trkpt lat="44.53083" lon="1.5408">
        <ele>331</ele>
        <time>2025-02-13T18:29:15Z</time>
      </trkpt>
      <trkpt lat="44.53088" lon="1.54079">
        <ele>330</ele>
        <time>2025-02-13T18:29:22Z</time>
      </trkpt>
      <trkpt lat="44.53105" lon="1.541">
        <ele>330</ele>
        <time>2025-02-13T18:29:52Z</time>
      </trkpt>
      <trkpt lat="44.53127" lon="1.54141">
        <ele>330</ele>
        <time>2025-02-13T18:30:41Z</time>
      </trkpt>
      <trkpt lat="44.53152" lon="1.54195">
        <ele>329</ele>
        <time>2025-02-13T18:31:42Z</time>
      </trkpt>
      <trkpt lat="44.53168" lon="1.54232">
        <ele>328</ele>
        <time>2025-02-13T18:32:23Z</time>
      </trkpt>
      <trkpt lat="44.5318" lon="1.54268">
        <ele>327</ele>
        <time>2025-02-13T18:33:01Z</time>
      </trkpt>
      <trkpt lat="44.53213" lon="1.54382">
        <ele>324</ele>
        <time>2025-02-13T18:34:58Z</time>
      </trkpt>
      <trkpt lat="44.53222" lon="1.54405">
        <ele>323</ele>
        <time>2025-02-13T18:35:23Z</time>
      </trkpt>
      <trkpt lat="44.53233" lon="1.54426">
        <ele>323</ele>
        <time>2025-02-13T18:35:48Z</time>
      </trkpt>
      <trkpt lat="44.53275" lon="1.5449">
        <ele>319</ele>
        <time>2025-02-13T18:37:11Z</time>
      </trkpt>
      <trkpt lat="44.53309" lon="1.54532">
        <ele>316</ele>
        <time>2025-02-13T18:38:11Z</time>
      </trkpt>
      <trkpt lat="44.53338" lon="1.54575">
        <ele>315</ele>
        <time>2025-02-13T18:39:07Z</time>
      </trkpt>
      <trkpt lat="44.53352" lon="1.54599">
        <ele>314</ele>
        <time>2025-02-13T18:39:37Z</time>
      </trkpt>
      <trkpt lat="44.53383" lon="1.54668">
        <ele>309</ele>
        <time>2025-02-13T18:40:55Z</time>
      </trkpt>
      <trkpt lat="44.53392" lon="1.54695">
        <ele>307</ele>
        <time>2025-02-13T18:41:23Z</time>
      </trkpt>
      <trkpt lat="44.53398" lon="1.54724">
        <ele>306</ele>
        <time>2025-02-13T18:41:52Z</time>
      </trkpt>
      <trkpt lat="44.53409" lon="1.54787">
        <ele>302</ele>
        <time>2025-02-13T18:42:53Z</time>
      </trkpt>
      <trkpt lat="44.53413" lon="1.54821">
        <ele>300</ele>
        <time>2025-02-13T18:43:26Z</time>
      </trkpt>
      <trkpt lat="44.53417" lon="1.54928">
        <ele>292</ele>
        <time>2025-02-13T18:45:08Z</time>
      </trkpt>
      <trkpt lat="44.5342" lon="1.54953">
        <ele>290</ele>
        <time>2025-02-13T18:45:32Z</time>
      </trkpt>
      <trkpt lat="44.53426" lon="1.54991">
        <ele>287</ele>
        <time>2025-02-13T18:46:09Z</time>
      </trkpt>
      <trkpt lat="44.53445" lon="1.55068">
        <ele>282</ele>
        <time>2025-02-13T18:47:27Z</time>
      </trkpt>
      <trkpt lat="44.53453" lon="1.55095">
        <ele>281</ele>
        <time>2025-02-13T18:47:54Z</time>
      </trkpt>
      <trkpt lat="44.53462" lon="1.55114">
        <ele>280</ele>
        <time>2025-02-13T18:48:16Z</time>
      </trkpt>
      <trkpt lat="44.53466" lon="1.55133">
        <ele>279</ele>
        <time>2025-02-13T18:48:35Z</time>
      </trkpt>
      <trkpt lat="44.53476" lon="1.55143">
        <ele>278</ele>
        <time>2025-02-13T18:48:51Z</time>
      </trkpt>
      <trkpt lat="44.53482" lon="1.55138">
        <ele>278</ele>
        <time>2025-02-13T18:49:01Z</time>
      </trkpt>
      <trkpt lat="44.5349" lon="1.55147">
        <ele>277</ele>
        <time>2025-02-13T18:49:14Z</time>
      </trkpt>
      <trkpt lat="44.53523" lon="1.55156">
        <ele>277</ele>
        <time>2025-02-13T18:49:59Z</time>
      </trkpt>
      <trkpt lat="44.53537" lon="1.55167">
        <ele>278</ele>
        <time>2025-02-13T18:50:21Z</time>
      </trkpt>
      <trkpt lat="44.53543" lon="1.55181">
        <ele>277</ele>
        <time>2025-02-13T18:50:36Z</time>
      </trkpt>
      <trkpt lat="44.53549" lon="1.55229">
        <ele>274</ele>
        <time>2025-02-13T18:51:23Z</time>
      </trkpt>
      <trkpt lat="44.53549" lon="1.55297">
        <ele>269</ele>
        <time>2025-02-13T18:52:27Z</time>
      </trkpt>
      <trkpt lat="44.53553" lon="1.55312">
        <ele>268</ele>
        <time>2025-02-13T18:52:43Z</time>
      </trkpt>
      <trkpt lat="44.53569" lon="1.55327">
        <ele>268</ele>
        <time>2025-02-13T18:53:08Z</time>
      </trkpt>
      <trkpt lat="44.53591" lon="1.55335">
        <ele>268</ele>
        <time>2025-02-13T18:53:39Z</time>
      </trkpt>
      <trkpt lat="44.53626" lon="1.55342">
        <ele>265</ele>
        <time>2025-02-13T18:54:26Z</time>
      </trkpt>
      <trkpt lat="44.53646" lon="1.55339">
        <ele>265</ele>
        <time>2025-02-13T18:54:53Z</time>
      </trkpt>
      <trkpt lat="44.53677" lon="1.55329">
        <ele>265</ele>
        <time>2025-02-13T18:55:35Z</time>
      </trkpt>
      <trkpt lat="44.53773" lon="1.55327">
        <ele>258</ele>
        <time>2025-02-13T18:57:43Z</time>
      </trkpt>
      <trkpt lat="44.5379" lon="1.5532">
        <ele>256</ele>
        <time>2025-02-13T18:58:07Z</time>
      </trkpt>
      <trkpt lat="44.53801" lon="1.55308">
        <ele>255</ele>
        <time>2025-02-13T18:58:25Z</time>
      </trkpt>
      <trkpt lat="44.53809" lon="1.55294">
        <ele>254</ele>
        <time>2025-02-13T18:58:42Z</time>
      </trkpt>
      <trkpt lat="44.5382" lon="1.55261">
        <ele>255</ele>
        <time>2025-02-13T18:59:17Z</time>
      </trkpt>
      <trkpt lat="44.53827" lon="1.55248">
        <ele>255</ele>
        <time>2025-02-13T18:59:33Z</time>
      </trkpt>
      <trkpt lat="44.53839" lon="1.55226">
        <ele>256</ele>
        <time>2025-02-13T18:59:59Z</time>
      </trkpt>
      <trkpt lat="44.53851" lon="1.5521">
        <ele>255</ele>
        <time>2025-02-13T19:00:21Z</time>
      </trkpt>
      <trkpt lat="44.5386" lon="1.55199">
        <ele>254</ele>
        <time>2025-02-13T19:00:37Z</time>
      </trkpt>
      <trkpt lat="44.53891" lon="1.55177">
        <ele>249</ele>
        <time>2025-02-13T19:01:23Z</time>
      </trkpt>
      <trkpt lat="44.53907" lon="1.55171">
        <ele>246</ele>
        <time>2025-02-13T19:01:45Z</time>
      </trkpt>
      <trkpt lat="44.5393" lon="1.55164">
        <ele>242</ele>
        <time>2025-02-13T19:02:17Z</time>
      </trkpt>
      <trkpt lat="44.53967" lon="1.55163">
        <ele>236</ele>
        <time>2025-02-13T19:03:06Z</time>
      </trkpt>
      <trkpt lat="44.54015" lon="1.55174">
        <ele>225</ele>
        <time>2025-02-13T19:04:11Z</time>
      </trkpt>
      <trkpt lat="44.54023" lon="1.55179">
        <ele>222</ele>
        <time>2025-02-13T19:04:23Z</time>
      </trkpt>
      <trkpt lat="44.54022" lon="1.5518">
        <ele>222</ele>
        <time>2025-02-13T19:04:24Z</time>
      </trkpt>
      <trkpt lat="44.54034" lon="1.5518">
        <ele>220</ele>
        <time>2025-02-13T19:04:40Z</time>
      </trkpt>
      <trkpt lat="44.54081" lon="1.5519">
        <ele>210</ele>
        <time>2025-02-13T19:05:44Z</time>
      </trkpt>
      <trkpt lat="44.54096" lon="1.5519">
        <ele>208</ele>
        <time>2025-02-13T19:06:04Z</time>
      </trkpt>
      <trkpt lat="44.54111" lon="1.55184">
        <ele>207</ele>
        <time>2025-02-13T19:06:25Z</time>
      </trkpt>
      <trkpt lat="44.54124" lon="1.55174">
        <ele>207</ele>
        <time>2025-02-13T19:06:44Z</time>
      </trkpt>
      <trkpt lat="44.54137" lon="1.55174">
        <ele>205</ele>
        <time>2025-02-13T19:07:02Z</time>
      </trkpt>
      <trkpt lat="44.54157" lon="1.55163">
        <ele>204</ele>
        <time>2025-02-13T19:07:31Z</time>
      </trkpt>
      <trkpt lat="44.54197" lon="1.55133">
        <ele>201</ele>
        <time>2025-02-13T19:08:31Z</time>
      </trkpt>
      <trkpt lat="44.54244" lon="1.55106">
        <ele>190</ele>
        <time>2025-02-13T19:09:39Z</time>
      </trkpt>
      <trkpt lat="44.54253" lon="1.55097">
        <ele>188</ele>
        <time>2025-02-13T19:09:54Z</time>
      </trkpt>
      <trkpt lat="44.54261" lon="1.55107">
        <ele>187</ele>
        <time>2025-02-13T19:10:08Z</time>
      </trkpt>
      <trkpt lat="44.54265" lon="1.55124">
        <ele>186</ele>
        <time>2025-02-13T19:10:25Z</time>
      </trkpt>
      <trkpt lat="44.54264" lon="1.55121">
        <ele>186</ele>
        <time>2025-02-13T19:10:28Z</time>
      </trkpt>
      <trkpt lat="44.54268" lon="1.55117">
        <ele>186</ele>
        <time>2025-02-13T19:10:35Z</time>
      </trkpt>
      <trkpt lat="44.54263" lon="1.55112">
        <ele>187</ele>
        <time>2025-02-13T19:10:43Z</time>
      </trkpt>
      <trkpt lat="44.54264" lon="1.5512">
        <ele>186</ele>
        <time>2025-02-13T19:10:51Z</time>
      </trkpt>
      <trkpt lat="44.5426" lon="1.55121">
        <ele>186</ele>
        <time>2025-02-13T19:10:56Z</time>
      </trkpt>
      <trkpt lat="44.54261" lon="1.55121">
        <ele>186</ele>
        <time>2025-02-13T19:10:57Z</time>
      </trkpt>
      <trkpt lat="44.54259" lon="1.55117">
        <ele>187</ele>
        <time>2025-02-13T19:11:02Z</time>
      </trkpt>
      <trkpt lat="44.5426" lon="1.5512">
        <ele>186</ele>
        <time>2025-02-13T19:11:05Z</time>
      </trkpt>
      <trkpt lat="44.54267" lon="1.55109">
        <ele>187</ele>
        <time>2025-02-13T19:11:19Z</time>
      </trkpt>
      <trkpt lat="44.54265" lon="1.55095">
        <ele>187</ele>
        <time>2025-02-13T19:11:33Z</time>
      </trkpt>
      <trkpt lat="44.54255" lon="1.55078">
        <ele>189</ele>
        <time>2025-02-13T19:11:54Z</time>
      </trkpt>
      <trkpt lat="44.54248" lon="1.55054">
        <ele>192</ele>
        <time>2025-02-13T19:12:18Z</time>
      </trkpt>
      <trkpt lat="44.54244" lon="1.55036">
        <ele>195</ele>
        <time>2025-02-13T19:12:36Z</time>
      </trkpt>
      <trkpt lat="44.54241" lon="1.55014">
        <ele>199</ele>
        <time>2025-02-13T19:12:58Z</time>
      </trkpt>
      <trkpt lat="44.54244" lon="1.5497">
        <ele>202</ele>
        <time>2025-02-13T19:13:40Z</time>
      </trkpt>
      <trkpt lat="44.54267" lon="1.54918">
        <ele>200</ele>
        <time>2025-02-13T19:14:38Z</time>
      </trkpt>
      <trkpt lat="44.54285" lon="1.54882">
        <ele>197</ele>
        <time>2025-02-13T19:15:20Z</time>
      </trkpt>
      <trkpt lat="44.54294" lon="1.54855">
        <ele>197</ele>
        <time>2025-02-13T19:15:48Z</time>
      </trkpt>
      <trkpt lat="44.54307" lon="1.5482">
        <ele>194</ele>
        <time>2025-02-13T19:16:25Z</time>
      </trkpt>
      <trkpt lat="44.54313" lon="1.54785">
        <ele>192</ele>
        <time>2025-02-13T19:17:00Z</time>
      </trkpt>
      <trkpt lat="44.54317" lon="1.54737">
        <ele>191</ele>
        <time>2025-02-13T19:17:46Z</time>
      </trkpt>
      <trkpt lat="44.54315" lon="1.54713">
        <ele>190</ele>
        <time>2025-02-13T19:18:09Z</time>
      </trkpt>
      <trkpt lat="44.5431" lon="1.54692">
        <ele>189</ele>
        <time>2025-02-13T19:18:30Z</time>
      </trkpt>
      <trkpt lat="44.54299" lon="1.5466">
        <ele>188</ele>
        <time>2025-02-13T19:19:04Z</time>
      </trkpt>
      <trkpt lat="44.54292" lon="1.54647">
        <ele>189</ele>
        <time>2025-02-13T19:19:19Z</time>
      </trkpt>
      <trkpt lat="44.54283" lon="1.54637">
        <ele>189</ele>
        <time>2025-02-13T19:19:34Z</time>
      </trkpt>
      <trkpt lat="44.54271" lon="1.54628">
        <ele>189</ele>
        <time>2025-02-13T19:19:52Z</time>
      </trkpt>
      <trkpt lat="44.54263" lon="1.54629">
        <ele>188</ele>
        <time>2025-02-13T19:20:03Z</time>
      </trkpt>
      <trkpt lat="44.54258" lon="1.54642">
        <ele>189</ele>
        <time>2025-02-13T19:20:17Z</time>
      </trkpt>
      <trkpt lat="44.54255" lon="1.54661">
        <ele>190</ele>
        <time>2025-02-13T19:20:36Z</time>
      </trkpt>
      <trkpt lat="44.54252" lon="1.54668">
        <ele>190</ele>
        <time>2025-02-13T19:20:44Z</time>
      </trkpt>
      <trkpt lat="44.54253" lon="1.54665">
        <ele>190</ele>
        <time>2025-02-13T19:20:47Z</time>
      </trkpt>
      <trkpt lat="44.54247" lon="1.54676">
        <ele>192</ele>
        <time>2025-02-13T19:21:00Z</time>
      </trkpt>
      <trkpt lat="44.54236" lon="1.5469">
        <ele>195</ele>
        <time>2025-02-13T19:21:20Z</time>
      </trkpt>
      <trkpt lat="44.54213" lon="1.54704">
        <ele>198</ele>
        <time>2025-02-13T19:21:53Z</time>
      </trkpt>
      <trkpt lat="44.54191" lon="1.54704">
        <ele>198</ele>
        <time>2025-02-13T19:22:23Z</time>
      </trkpt>
      <trkpt lat="44.54177" lon="1.54695">
        <ele>196</ele>
        <time>2025-02-13T19:22:43Z</time>
      </trkpt>
      <trkpt lat="44.54163" lon="1.54692">
        <ele>196</ele>
        <time>2025-02-13T19:23:02Z</time>
      </trkpt>
      <trkpt lat="44.54159" lon="1.54679">
        <ele>194</ele>
        <time>2025-02-13T19:23:15Z</time>
      </trkpt>
      <trkpt lat="44.54155" lon="1.54679">
        <ele>195</ele>
        <time>2025-02-13T19:23:21Z</time>
      </trkpt>
      <trkpt lat="44.54148" lon="1.54672">
        <ele>195</ele>
        <time>2025-02-13T19:23:32Z</time>
      </trkpt>
      <trkpt lat="44.54119" lon="1.54622">
        <ele>196</ele>
        <time>2025-02-13T19:24:34Z</time>
      </trkpt>
      <trkpt lat="44.54111" lon="1.54614">
        <ele>196</ele>
        <time>2025-02-13T19:24:47Z</time>
      </trkpt>
      <trkpt lat="44.5411" lon="1.54616">
        <ele>196</ele>
        <time>2025-02-13T19:24:49Z</time>
      </trkpt>
      <trkpt lat="44.54107" lon="1.54614">
        <ele>196</ele>
        <time>2025-02-13T19:24:53Z</time>
      </trkpt>
      <trkpt lat="44.54103" lon="1.54621">
        <ele>198</ele>
        <time>2025-02-13T19:25:02Z</time>
      </trkpt>
      <trkpt lat="44.54084" lon="1.54574">
        <ele>192</ele>
        <time>2025-02-13T19:25:53Z</time>
      </trkpt>
      <trkpt lat="44.54073" lon="1.54559">
        <ele>195</ele>
        <time>2025-02-13T19:26:14Z</time>
      </trkpt>
      <trkpt lat="44.54061" lon="1.54538">
        <ele>197</ele>
        <time>2025-02-13T19:26:39Z</time>
      </trkpt>
      <trkpt lat="44.5405" lon="1.5451">
        <ele>198</ele>
        <time>2025-02-13T19:27:10Z</time>
      </trkpt>
      <trkpt lat="44.54047" lon="1.5451">
        <ele>198</ele>
        <time>2025-02-13T19:27:14Z</time>
      </trkpt>
      <trkpt lat="44.5405" lon="1.54497">
        <ele>197</ele>
        <time>2025-02-13T19:27:27Z</time>
      </trkpt>
      <trkpt lat="44.54052" lon="1.54499">
        <ele>196</ele>
        <time>2025-02-13T19:27:30Z</time>
      </trkpt>
      <trkpt lat="44.54051" lon="1.54497">
        <ele>196</ele>
        <time>2025-02-13T19:27:32Z</time>
      </trkpt>
      <trkpt lat="44.54057" lon="1.54492">
        <ele>195</ele>
        <time>2025-02-13T19:27:42Z</time>
      </trkpt>
      <trkpt lat="44.54065" lon="1.54477">
        <ele>194</ele>
        <time>2025-02-13T19:28:00Z</time>
      </trkpt>
      <trkpt lat="44.54076" lon="1.54473">
        <ele>192</ele>
        <time>2025-02-13T19:28:15Z</time>
      </trkpt>
      <trkpt lat="44.54069" lon="1.54459">
        <ele>194</ele>
        <time>2025-02-13T19:28:31Z</time>
      </trkpt>
      <trkpt lat="44.54067" lon="1.54426">
        <ele>196</ele>
        <time>2025-02-13T19:29:02Z</time>
      </trkpt>
      <trkpt lat="44.54069" lon="1.54394">
        <ele>196</ele>
        <time>2025-02-13T19:29:33Z</time>
      </trkpt>
      <trkpt lat="44.54077" lon="1.54375">
        <ele>196</ele>
        <time>2025-02-13T19:29:54Z</time>
      </trkpt>
      <trkpt lat="44.54084" lon="1.5436">
        <ele>196</ele>
        <time>2025-02-13T19:30:11Z</time>
      </trkpt>
      <trkpt lat="44.5409" lon="1.54341">
        <ele>198</ele>
        <time>2025-02-13T19:30:31Z</time>
      </trkpt>
      <trkpt lat="44.54094" lon="1.54323">
        <ele>201</ele>
        <time>2025-02-13T19:30:49Z</time>
      </trkpt>
      <trkpt lat="44.54093" lon="1.54306">
        <ele>201</ele>
        <time>2025-02-13T19:31:05Z</time>
      </trkpt>
      <trkpt lat="44.54092" lon="1.54302">
        <ele>201</ele>
        <time>2025-02-13T19:31:09Z</time>
      </trkpt>
      <trkpt lat="44.54083" lon="1.54285">
        <ele>198</ele>
        <time>2025-02-13T19:31:29Z</time>
      </trkpt>
      <trkpt lat="44.54079" lon="1.54281">
        <ele>198</ele>
        <time>2025-02-13T19:31:36Z</time>
      </trkpt>
      <trkpt lat="44.54078" lon="1.54282">
        <ele>198</ele>
        <time>2025-02-13T19:31:37Z</time>
      </trkpt>
      <trkpt lat="44.54077" lon="1.54277">
        <ele>198</ele>
        <time>2025-02-13T19:31:42Z</time>
      </trkpt>
      <trkpt lat="44.54043" lon="1.5421">
        <ele>199</ele>
        <time>2025-02-13T19:33:01Z</time>
      </trkpt>
      <trkpt lat="44.54026" lon="1.54166">
        <ele>198</ele>
        <time>2025-02-13T19:33:48Z</time>
      </trkpt>
      <trkpt lat="44.54022" lon="1.5415">
        <ele>198</ele>
        <time>2025-02-13T19:34:04Z</time>
      </trkpt>
      <trkpt lat="44.54022" lon="1.5413">
        <ele>198</ele>
        <time>2025-02-13T19:34:23Z</time>
      </trkpt>
      <trkpt lat="44.54023" lon="1.5411">
        <ele>199</ele>
        <time>2025-02-13T19:34:42Z</time>
      </trkpt>
      <trkpt lat="44.5403" lon="1.54075">
        <ele>200</ele>
        <time>2025-02-13T19:35:17Z</time>
      </trkpt>
      <trkpt lat="44.54049" lon="1.54019">
        <ele>203</ele>
        <time>2025-02-13T19:36:16Z</time>
      </trkpt>
      <trkpt lat="44.54055" lon="1.53989">
        <ele>204</ele>
        <time>2025-02-13T19:36:46Z</time>
      </trkpt>
      <trkpt lat="44.54062" lon="1.53971">
        <ele>204</ele>
        <time>2025-02-13T19:37:05Z</time>
      </trkpt>
      <trkpt lat="44.54069" lon="1.53942">
        <ele>203</ele>
        <time>2025-02-13T19:37:34Z</time>
      </trkpt>
      <trkpt lat="44.54083" lon="1.53917">
        <ele>199</ele>
        <time>2025-02-13T19:38:04Z</time>
      </trkpt>
      <trkpt lat="44.54101" lon="1.53869">
        <ele>202</ele>
        <time>2025-02-13T19:38:56Z</time>
      </trkpt>
      <trkpt lat="44.54106" lon="1.53864">
        <ele>202</ele>
        <time>2025-02-13T19:39:04Z</time>
      </trkpt>
      <trkpt lat="44.54118" lon="1.5384">
        <ele>201</ele>
        <time>2025-02-13T19:39:32Z</time>
      </trkpt>
      <trkpt lat="44.54132" lon="1.53827">
        <ele>200</ele>
        <time>2025-02-13T19:39:54Z</time>
      </trkpt>
      <trkpt lat="44.54146" lon="1.5382">
        <ele>199</ele>
        <time>2025-02-13T19:40:14Z</time>
      </trkpt>
      <trkpt lat="44.54164" lon="1.53816">
        <ele>198</ele>
        <time>2025-02-13T19:40:39Z</time>
      </trkpt>
      <trkpt lat="44.54179" lon="1.53827">
        <ele>200</ele>
        <time>2025-02-13T19:41:01Z</time>
      </trkpt>
      <trkpt lat="44.54182" lon="1.53832">
        <ele>201</ele>
        <time>2025-02-13T19:41:07Z</time>
      </trkpt>
      <trkpt lat="44.54186" lon="1.53825">
        <ele>201</ele>
        <time>2025-02-13T19:41:16Z</time>
      </trkpt>
      <trkpt lat="44.54198" lon="1.53827">
        <ele>204</ele>
        <time>2025-02-13T19:41:32Z</time>
      </trkpt>
      <trkpt lat="44.54201" lon="1.53832">
        <ele>205</ele>
        <time>2025-02-13T19:41:38Z</time>
      </trkpt>
      <trkpt lat="44.54208" lon="1.53821">
        <ele>205</ele>
        <time>2025-02-13T19:41:52Z</time>
      </trkpt>
      <trkpt lat="44.54227" lon="1.53783">
        <ele>206</ele>
        <time>2025-02-13T19:42:36Z</time>
      </trkpt>
      <trkpt lat="44.54231" lon="1.53772">
        <ele>206</ele>
        <time>2025-02-13T19:42:48Z</time>
      </trkpt>
      <trkpt lat="44.54235" lon="1.53738">
        <ele>204</ele>
        <time>2025-02-13T19:43:21Z</time>
      </trkpt>
      <trkpt lat="44.54242" lon="1.53633">
        <ele>200</ele>
        <time>2025-02-13T19:45:01Z</time>
      </trkpt>
      <trkpt lat="44.54247" lon="1.53602">
        <ele>198</ele>
        <time>2025-02-13T19:45:32Z</time>
      </trkpt>
      <trkpt lat="44.54254" lon="1.53585">
        <ele>199</ele>
        <time>2025-02-13T19:45:50Z</time>
      </trkpt>
      <trkpt lat="44.54264" lon="1.53545">
        <ele>199</ele>
        <time>2025-02-13T19:46:31Z</time>
      </trkpt>
      <trkpt lat="44.54284" lon="1.53486">
        <ele>199</ele>
        <time>2025-02-13T19:47:33Z</time>
      </trkpt>
      <trkpt lat="44.54294" lon="1.53462">
        <ele>199</ele>
        <time>2025-02-13T19:47:59Z</time>
      </trkpt>
      <trkpt lat="44.54309" lon="1.53431">
        <ele>197</ele>
        <time>2025-02-13T19:48:35Z</time>
      </trkpt>
      <trkpt lat="44.54366" lon="1.53407">
        <ele>198</ele>
        <time>2025-02-13T19:49:54Z</time>
      </trkpt>
      <trkpt lat="44.54402" lon="1.53399">
        <ele>201</ele>
        <time>2025-02-13T19:50:43Z</time>
      </trkpt>
      <trkpt lat="44.5441" lon="1.53386">
        <ele>202</ele>
        <time>2025-02-13T19:50:59Z</time>
      </trkpt>
      <trkpt lat="44.54405" lon="1.53375">
        <ele>201</ele>
        <time>2025-02-13T19:51:12Z</time>
      </trkpt>
      <trkpt lat="44.54396" lon="1.53371">
        <ele>201</ele>
        <time>2025-02-13T19:51:24Z</time>
      </trkpt>
      <trkpt lat="44.54376" lon="1.53368">
        <ele>199</ele>
        <time>2025-02-13T19:51:51Z</time>
      </trkpt>
      <trkpt lat="44.54341" lon="1.53357">
        <ele>195</ele>
        <time>2025-02-13T19:52:39Z</time>
      </trkpt>
      <trkpt lat="44.54339" lon="1.53339">
        <ele>195</ele>
        <time>2025-02-13T19:52:56Z</time>
      </trkpt>
      <trkpt lat="44.54344" lon="1.53322">
        <ele>195</ele>
        <time>2025-02-13T19:53:14Z</time>
      </trkpt>
      <trkpt lat="44.54367" lon="1.53286">
        <ele>200</ele>
        <time>2025-02-13T19:54:00Z</time>
      </trkpt>
      <trkpt lat="44.54384" lon="1.5327">
        <ele>203</ele>
        <time>2025-02-13T19:54:27Z</time>
      </trkpt>
      <trkpt lat="44.54408" lon="1.53232">
        <ele>207</ele>
        <time>2025-02-13T19:55:15Z</time>
      </trkpt>
      <trkpt lat="44.54412" lon="1.53209">
        <ele>207</ele>
        <time>2025-02-13T19:55:38Z</time>
      </trkpt>
      <trkpt lat="44.54406" lon="1.5316">
        <ele>206</ele>
        <time>2025-02-13T19:56:25Z</time>
      </trkpt>
      <trkpt lat="44.54405" lon="1.531">
        <ele>206</ele>
        <time>2025-02-13T19:57:22Z</time>
      </trkpt>
      <trkpt lat="44.54402" lon="1.53012">
        <ele>209</ele>
        <time>2025-02-13T19:58:46Z</time>
      </trkpt>
      <trkpt lat="44.5439" lon="1.52968">
        <ele>207</ele>
        <time>2025-02-13T19:59:31Z</time>
      </trkpt>
      <trkpt lat="44.54379" lon="1.52929">
        <ele>205</ele>
        <time>2025-02-13T20:00:11Z</time>
      </trkpt>
      <trkpt lat="44.54367" lon="1.52918">
        <ele>202</ele>
        <time>2025-02-13T20:00:30Z</time>
      </trkpt>
      <trkpt lat="44.54392" lon="1.52878">
        <ele>205</ele>
        <time>2025-02-13T20:01:20Z</time>
      </trkpt>
      <trkpt lat="44.54397" lon="1.52845">
        <ele>203</ele>
        <time>2025-02-13T20:01:52Z</time>
      </trkpt>
      <trkpt lat="44.54395" lon="1.52767">
        <ele>205</ele>
        <time>2025-02-13T20:03:07Z</time>
      </trkpt>
      <trkpt lat="44.54393" lon="1.52714">
        <ele>206</ele>
        <time>2025-02-13T20:03:57Z</time>
      </trkpt>
      <trkpt lat="44.54405" lon="1.52677">
        <ele>209</ele>
        <time>2025-02-13T20:04:36Z</time>
      </trkpt>
      <trkpt lat="44.54418" lon="1.52624">
        <ele>208</ele>
        <time>2025-02-13T20:05:29Z</time>
      </trkpt>
      <trkpt lat="44.54422" lon="1.52583">
        <ele>207</ele>
        <time>2025-02-13T20:06:08Z</time>
      </trkpt>
      <trkpt lat="44.54441" lon="1.52536">
        <ele>210</ele>
        <time>2025-02-13T20:07:00Z</time>
      </trkpt>
      <trkpt lat="44.54459" lon="1.52493">
        <ele>210</ele>
        <time>2025-02-13T20:07:47Z</time>
      </trkpt>
      <trkpt lat="44.5447" lon="1.52442">
        <ele>209</ele>
        <time>2025-02-13T20:08:38Z</time>
      </trkpt>
      <trkpt lat="44.54478" lon="1.52413">
        <ele>208</ele>
        <time>2025-02-13T20:09:08Z</time>
      </trkpt>
      <trkpt lat="44.54483" lon="1.5239">
        <ele>207</ele>
        <time>2025-02-13T20:09:30Z</time>
      </trkpt>
      <trkpt lat="44.54484" lon="1.52368">
        <ele>206</ele>
        <time>2025-02-13T20:09:51Z</time>
      </trkpt>
      <trkpt lat="44.54486" lon="1.52338">
        <ele>203</ele>
        <time>2025-02-13T20:10:20Z</time>
      </trkpt>
      <trkpt lat="44.54484" lon="1.52316">
        <ele>202</ele>
        <time>2025-02-13T20:10:41Z</time>
      </trkpt>
      <trkpt lat="44.54489" lon="1.52296">
        <ele>202</ele>
        <time>2025-02-13T20:11:01Z</time>
      </trkpt>
      <trkpt lat="44.54491" lon="1.52277">
        <ele>202</ele>
        <time>2025-02-13T20:11:20Z</time>
      </trkpt>
      <trkpt lat="44.54485" lon="1.52249">
        <ele>201</ele>
        <time>2025-02-13T20:11:47Z</time>
      </trkpt>
      <trkpt lat="44.54481" lon="1.52233">
        <ele>204</ele>
        <time>2025-02-13T20:12:04Z</time>
      </trkpt>
      <trkpt lat="44.54477" lon="1.52222">
        <ele>205</ele>
        <time>2025-02-13T20:12:15Z</time>
      </trkpt>
      <trkpt lat="44.54465" lon="1.52209">
        <ele>207</ele>
        <time>2025-02-13T20:12:35Z</time>
      </trkpt>
      <trkpt lat="44.54451" lon="1.52196">
        <ele>209</ele>
        <time>2025-02-13T20:12:58Z</time>
      </trkpt>
      <trkpt lat="44.5444" lon="1.52185">
        <ele>210</ele>
        <time>2025-02-13T20:13:16Z</time>
      </trkpt>
      <trkpt lat="44.54431" lon="1.52175">
        <ele>211</ele>
        <time>2025-02-13T20:13:31Z</time>
      </trkpt>
      <trkpt lat="44.54419" lon="1.52163">
        <ele>212</ele>
        <time>2025-02-13T20:13:51Z</time>
      </trkpt>
      <trkpt lat="44.54401" lon="1.52154">
        <ele>211</ele>
        <time>2025-02-13T20:14:16Z</time>
      </trkpt>
      <trkpt lat="44.54388" lon="1.52164">
        <ele>210</ele>
        <time>2025-02-13T20:14:36Z</time>
      </trkpt>
      <trkpt lat="44.54383" lon="1.52169">
        <ele>210</ele>
        <time>2025-02-13T20:14:44Z</time>
      </trkpt>
      <trkpt lat="44.5438" lon="1.52171">
        <ele>209</ele>
        <time>2025-02-13T20:14:49Z</time>
      </trkpt>
      <trkpt lat="44.54365" lon="1.5217">
        <ele>209</ele>
        <time>2025-02-13T20:15:09Z</time>
      </trkpt>
      <trkpt lat="44.54338" lon="1.52176">
        <ele>207</ele>
        <time>2025-02-13T20:15:45Z</time>
      </trkpt>
      <trkpt lat="44.54322" lon="1.52177">
        <ele>207</ele>
        <time>2025-02-13T20:16:07Z</time>
      </trkpt>
      <trkpt lat="44.54317" lon="1.52172">
        <ele>207</ele>
        <time>2025-02-13T20:16:15Z</time>
      </trkpt>
      <trkpt lat="44.5431" lon="1.52151">
        <ele>207</ele>
        <time>2025-02-13T20:16:37Z</time>
      </trkpt>
      <trkpt lat="44.54314" lon="1.52135">
        <ele>206</ele>
        <time>2025-02-13T20:16:53Z</time>
      </trkpt>
      <trkpt lat="44.54312" lon="1.52115">
        <ele>206</ele>
        <time>2025-02-13T20:17:12Z</time>
      </trkpt>
      <trkpt lat="44.54308" lon="1.52093">
        <ele>205</ele>
        <time>2025-02-13T20:17:34Z</time>
      </trkpt>
      <trkpt lat="44.54317" lon="1.52056">
        <ele>206</ele>
        <time>2025-02-13T20:18:11Z</time>
      </trkpt>
      <trkpt lat="44.54324" lon="1.52039">
        <ele>206</ele>
        <time>2025-02-13T20:18:30Z</time>
      </trkpt>
      <trkpt lat="44.5434" lon="1.52023">
        <ele>206</ele>
        <time>2025-02-13T20:18:56Z</time>
      </trkpt>
      <trkpt lat="44.54352" lon="1.51997">
        <ele>206</ele>
        <time>2025-02-13T20:19:25Z</time>
      </trkpt>
      <trkpt lat="44.54379" lon="1.51962">
        <ele>208</ele>
        <time>2025-02-13T20:20:14Z</time>
      </trkpt>
      <trkpt lat="44.54393" lon="1.51956">
        <ele>207</ele>
        <time>2025-02-13T20:20:34Z</time>
      </trkpt>
      <trkpt lat="44.54394" lon="1.51965">
        <ele>206</ele>
        <time>2025-02-13T20:20:43Z</time>
      </trkpt>
      <trkpt lat="44.54394" lon="1.51961">
        <ele>207</ele>
        <time>2025-02-13T20:20:46Z</time>
      </trkpt>
      <trkpt lat="44.5441" lon="1.51959">
        <ele>206</ele>
        <time>2025-02-13T20:21:08Z</time>
      </trkpt>
      <trkpt lat="44.54401" lon="1.51965">
        <ele>206</ele>
        <time>2025-02-13T20:21:21Z</time>
      </trkpt>
      <trkpt lat="44.5439" lon="1.51953">
        <ele>207</ele>
        <time>2025-02-13T20:21:40Z</time>
      </trkpt>
      <trkpt lat="44.54395" lon="1.51951">
        <ele>207</ele>
        <time>2025-02-13T20:21:47Z</time>
      </trkpt>
      <trkpt lat="44.54389" lon="1.51946">
        <ele>208</ele>
        <time>2025-02-13T20:21:56Z</time>
      </trkpt>
      <trkpt lat="44.54384" lon="1.5193">
        <ele>209</ele>
        <time>2025-02-13T20:22:13Z</time>
      </trkpt>
      <trkpt lat="44.54376" lon="1.51915">
        <ele>211</ele>
        <time>2025-02-13T20:22:30Z</time>
      </trkpt>
      <trkpt lat="44.54361" lon="1.51899">
        <ele>213</ele>
        <time>2025-02-13T20:22:56Z</time>
      </trkpt>
      <trkpt lat="44.54356" lon="1.51883">
        <ele>215</ele>
        <time>2025-02-13T20:23:12Z</time>
      </trkpt>
      <trkpt lat="44.54351" lon="1.51832">
        <ele>218</ele>
        <time>2025-02-13T20:24:01Z</time>
      </trkpt>
      <trkpt lat="44.54341" lon="1.51816">
        <ele>220</ele>
        <time>2025-02-13T20:24:21Z</time>
      </trkpt>
      <trkpt lat="44.54307" lon="1.5179">
        <ele>225</ele>
        <time>2025-02-13T20:25:13Z</time>
      </trkpt>
      <trkpt lat="44.54271" lon="1.51773">
        <ele>226</ele>
        <time>2025-02-13T20:26:04Z</time>
      </trkpt>
      <trkpt lat="44.54253" lon="1.51766">
        <ele>226</ele>
        <time>2025-02-13T20:26:29Z</time>
      </trkpt>
      <trkpt lat="44.54197" lon="1.51753">
        <ele>226</ele>
        <time>2025-02-13T20:27:44Z</time>
      </trkpt>
      <trkpt lat="44.54182" lon="1.51747">
        <ele>227</ele>
        <time>2025-02-13T20:28:05Z</time>
      </trkpt>
      <trkpt lat="44.5417" lon="1.51737">
        <ele>229</ele>
        <time>2025-02-13T20:28:24Z</time>
      </trkpt>
      <trkpt lat="44.54152" lon="1.51725">
        <ele>232</ele>
        <time>2025-02-13T20:28:51Z</time>
      </trkpt>
      <trkpt lat="44.54136" lon="1.51719">
        <ele>234</ele>
        <time>2025-02-13T20:29:13Z</time>
      </trkpt>
      <trkpt lat="44.54099" lon="1.51708">
        <ele>236</ele>
        <time>2025-02-13T20:30:03Z</time>
      </trkpt>
      <trkpt lat="44.54034" lon="1.5167">
        <ele>236</ele>
        <time>2025-02-13T20:31:37Z</time>
      </trkpt>
      <trkpt lat="44.54017" lon="1.51662">
        <ele>237</ele>
        <time>2025-02-13T20:32:01Z</time>
      </trkpt>
      <trkpt lat="44.54005" lon="1.51649">
        <ele>239</ele>
        <time>2025-02-13T20:32:21Z</time>
      </trkpt>
      <trkpt lat="44.53996" lon="1.51642">
        <ele>241</ele>
        <time>2025-02-13T20:32:35Z</time>
      </trkpt>
      <trkpt lat="44.5398" lon="1.51631">
        <ele>243</ele>
        <time>2025-02-13T20:32:59Z</time>
      </trkpt>
      <trkpt lat="44.53973" lon="1.51624">
        <ele>245</ele>
        <time>2025-02-13T20:33:10Z</time>
      </trkpt>
      <trkpt lat="44.53969" lon="1.51627">
        <ele>244</ele>
        <time>2025-02-13T20:33:16Z</time>
      </trkpt>
      <trkpt lat="44.5394" lon="1.5161">
        <ele>247</ele>
        <time>2025-02-13T20:33:58Z</time>
      </trkpt>
      <trkpt lat="44.53925" lon="1.5161">
        <ele>247</ele>
        <time>2025-02-13T20:34:18Z</time>
      </trkpt>
      <trkpt lat="44.53913" lon="1.51612">
        <ele>247</ele>
        <time>2025-02-13T20:34:34Z</time>
      </trkpt>
      <trkpt lat="44.53882" lon="1.51623">
        <ele>248</ele>
        <time>2025-02-13T20:35:17Z</time>
      </trkpt>
      <trkpt lat="44.5385" lon="1.5163">
        <ele>249</ele>
        <time>2025-02-13T20:36:00Z</time>
      </trkpt>
      <trkpt lat="44.53841" lon="1.51639">
        <ele>248</ele>
        <time>2025-02-13T20:36:15Z</time>
      </trkpt>
      <trkpt lat="44.53832" lon="1.51649">
        <ele>246</ele>
        <time>2025-02-13T20:36:30Z</time>
      </trkpt>
      <trkpt lat="44.53826" lon="1.51664">
        <ele>245</ele>
        <time>2025-02-13T20:36:47Z</time>
      </trkpt>
      <trkpt lat="44.53815" lon="1.51671">
        <ele>247</ele>
        <time>2025-02-13T20:37:03Z</time>
      </trkpt>
      <trkpt lat="44.53802" lon="1.51674">
        <ele>249</ele>
        <time>2025-02-13T20:37:20Z</time>
      </trkpt>
      <trkpt lat="44.53793" lon="1.51679">
        <ele>251</ele>
        <time>2025-02-13T20:37:33Z</time>
      </trkpt>
      <trkpt lat="44.53782" lon="1.51682">
        <ele>253</ele>
        <time>2025-02-13T20:37:48Z</time>
      </trkpt>
      <trkpt lat="44.53766" lon="1.51699">
        <ele>256</ele>
        <time>2025-02-13T20:38:15Z</time>
      </trkpt>
      <trkpt lat="44.53749" lon="1.51712">
        <ele>258</ele>
        <time>2025-02-13T20:38:41Z</time>
      </trkpt>
      <trkpt lat="44.53736" lon="1.51717">
        <ele>260</ele>
        <time>2025-02-13T20:38:59Z</time>
      </trkpt>
      <trkpt lat="44.5372" lon="1.51716">
        <ele>263</ele>
        <time>2025-02-13T20:39:20Z</time>
      </trkpt>
      <trkpt lat="44.5371" lon="1.51721">
        <ele>264</ele>
        <time>2025-02-13T20:39:34Z</time>
      </trkpt>
      <trkpt lat="44.53699" lon="1.51723">
        <ele>265</ele>
        <time>2025-02-13T20:39:49Z</time>
      </trkpt>
      <trkpt lat="44.53687" lon="1.51733">
        <ele>265</ele>
        <time>2025-02-13T20:40:08Z</time>
      </trkpt>
      <trkpt lat="44.53678" lon="1.51754">
        <ele>263</ele>
        <time>2025-02-13T20:40:31Z</time>
      </trkpt>
      <trkpt lat="44.53668" lon="1.51745">
        <ele>264</ele>
        <time>2025-02-13T20:40:47Z</time>
      </trkpt>
      <trkpt lat="44.53678" lon="1.51753">
        <ele>263</ele>
        <time>2025-02-13T20:41:02Z</time>
      </trkpt>
      <trkpt lat="44.53682" lon="1.51759">
        <ele>264</ele>
        <time>2025-02-13T20:41:10Z</time>
      </trkpt>
      <trkpt lat="44.53683" lon="1.51755">
        <ele>263</ele>
        <time>2025-02-13T20:41:14Z</time>
      </trkpt>
      <trkpt lat="44.53672" lon="1.51765">
        <ele>265</ele>
        <time>2025-02-13T20:41:32Z</time>
      </trkpt>
      <trkpt lat="44.53663" lon="1.51765">
        <ele>266</ele>
        <time>2025-02-13T20:41:44Z</time>
      </trkpt>
      <trkpt lat="44.53655" lon="1.51773">
        <ele>267</ele>
        <time>2025-02-13T20:41:57Z</time>
      </trkpt>
      <trkpt lat="44.53646" lon="1.51775">
        <ele>268</ele>
        <time>2025-02-13T20:42:09Z</time>
      </trkpt>
      <trkpt lat="44.53624" lon="1.51785">
        <ele>271</ele>
        <time>2025-02-13T20:42:40Z</time>
      </trkpt>
      <trkpt lat="44.53604" lon="1.51782">
        <ele>272</ele>
        <time>2025-02-13T20:43:07Z</time>
      </trkpt>
      <trkpt lat="44.53595" lon="1.51784">
        <ele>273</ele>
        <time>2025-02-13T20:43:19Z</time>
      </trkpt>
      <trkpt lat="44.5358" lon="1.51791">
        <ele>273</ele>
        <time>2025-02-13T20:43:40Z</time>
      </trkpt>
      <trkpt lat="44.53567" lon="1.51795">
        <ele>274</ele>
        <time>2025-02-13T20:43:58Z</time>
      </trkpt>
      <trkpt lat="44.53564" lon="1.51811">
        <ele>274</ele>
        <time>2025-02-13T20:44:13Z</time>
      </trkpt>
      <trkpt lat="44.53569" lon="1.51821">
        <ele>273</ele>
        <time>2025-02-13T20:44:25Z</time>
      </trkpt>
      <trkpt lat="44.53565" lon="1.51824">
        <ele>273</ele>
        <time>2025-02-13T20:44:31Z</time>
      </trkpt>
      <trkpt lat="44.53583" lon="1.5183">
        <ele>271</ele>
        <time>2025-02-13T20:44:56Z</time>
      </trkpt>
      <trkpt lat="44.53592" lon="1.51836">
        <ele>272</ele>
        <time>2025-02-13T20:45:09Z</time>
      </trkpt>
      <trkpt lat="44.53601" lon="1.51837">
        <ele>273</ele>
        <time>2025-02-13T20:45:21Z</time>
      </trkpt>
      <trkpt lat="44.53614" lon="1.51835">
        <ele>273</ele>
        <time>2025-02-13T20:45:39Z</time>
      </trkpt>
      <trkpt lat="44.53631" lon="1.51836">
        <ele>274</ele>
        <time>2025-02-13T20:46:01Z</time>
      </trkpt>
      <trkpt lat="44.5366" lon="1.51829">
        <ele>274</ele>
        <time>2025-02-13T20:46:41Z</time>
      </trkpt>
      <trkpt lat="44.53693" lon="1.51826">
        <ele>276</ele>
        <time>2025-02-13T20:47:25Z</time>
      </trkpt>
      <trkpt lat="44.53705" lon="1.51827">
        <ele>277</ele>
        <time>2025-02-13T20:47:41Z</time>
      </trkpt>
      <trkpt lat="44.53769" lon="1.5182">
        <ele>280</ele>
        <time>2025-02-13T20:49:06Z</time>
      </trkpt>
      <trkpt lat="44.5378" lon="1.51821">
        <ele>282</ele>
        <time>2025-02-13T20:49:21Z</time>
      </trkpt>
      <trkpt lat="44.53853" lon="1.51799">
        <ele>279</ele>
        <time>2025-02-13T20:51:01Z</time>
      </trkpt>
      <trkpt lat="44.53884" lon="1.51798">
        <ele>281</ele>
        <time>2025-02-13T20:51:42Z</time>
      </trkpt>
      <trkpt lat="44.53899" lon="1.51799">
        <ele>282</ele>
        <time>2025-02-13T20:52:02Z</time>
      </trkpt>
      <trkpt lat="44.53906" lon="1.51802">
        <ele>283</ele>
        <time>2025-02-13T20:52:12Z</time>
      </trkpt>
      <trkpt lat="44.53903" lon="1.51811">
        <ele>286</ele>
        <time>2025-02-13T20:52:21Z</time>
      </trkpt>
      <trkpt lat="44.539" lon="1.51809">
        <ele>285</ele>
        <time>2025-02-13T20:52:26Z</time>
      </trkpt>
      <trkpt lat="44.53898" lon="1.51804">
        <ele>284</ele>
        <time>2025-02-13T20:52:31Z</time>
      </trkpt>
      <trkpt lat="44.53898" lon="1.518">
        <ele>282</ele>
        <time>2025-02-13T20:52:35Z</time>
      </trkpt>
      <trkpt lat="44.539" lon="1.51798">
        <ele>282</ele>
        <time>2025-02-13T20:52:38Z</time>
      </trkpt>
      <trkpt lat="44.53899" lon="1.51802">
        <ele>283</ele>
        <time>2025-02-13T20:52:42Z</time>
      </trkpt>
      <trkpt lat="44.53899" lon="1.51799">
        <ele>282</ele>
        <time>2025-02-13T20:52:45Z</time>
      </trkpt>
      <trkpt lat="44.53894" lon="1.51806">
        <ele>284</ele>
        <time>2025-02-13T20:52:55Z</time>
      </trkpt>
      <trkpt lat="44.53884" lon="1.51807">
        <ele>284</ele>
        <time>2025-02-13T20:53:08Z</time>
      </trkpt>
      <trkpt lat="44.53856" lon="1.51814">
        <ele>284</ele>
        <time>2025-02-13T20:53:46Z</time>
      </trkpt>
      <trkpt lat="44.53846" lon="1.5182">
        <ele>286</ele>
        <time>2025-02-13T20:54:00Z</time>
      </trkpt>
      <trkpt lat="44.53797" lon="1.5186">
        <ele>295</ele>
        <time>2025-02-13T20:55:16Z</time>
      </trkpt>
      <trkpt lat="44.53765" lon="1.51881">
        <ele>299</ele>
        <time>2025-02-13T20:56:03Z</time>
      </trkpt>
      <trkpt lat="44.53721" lon="1.51899">
        <ele>301</ele>
        <time>2025-02-13T20:57:04Z</time>
      </trkpt>
      <trkpt lat="44.53693" lon="1.51909">
        <ele>302</ele>
        <time>2025-02-13T20:57:43Z</time>
      </trkpt>
      <trkpt lat="44.53648" lon="1.51932">
        <ele>304</ele>
        <time>2025-02-13T20:58:47Z</time>
      </trkpt>
      <trkpt lat="44.53631" lon="1.51943">
        <ele>305</ele>
        <time>2025-02-13T20:59:12Z</time>
      </trkpt>
      <trkpt lat="44.53618" lon="1.51962">
        <ele>309</ele>
        <time>2025-02-13T20:59:37Z</time>
      </trkpt>
      <trkpt lat="44.5361" lon="1.51979">
        <ele>313</ele>
        <time>2025-02-13T20:59:56Z</time>
      </trkpt>
      <trkpt lat="44.53597" lon="1.51996">
        <ele>316</ele>
        <time>2025-02-13T21:00:20Z</time>
      </trkpt>
      <trkpt lat="44.5358" lon="1.51992">
        <ele>315</ele>
        <time>2025-02-13T21:00:43Z</time>
      </trkpt>
      <trkpt lat="44.53567" lon="1.51982">
        <ele>314</ele>
        <time>2025-02-13T21:01:03Z</time>
      </trkpt>
      <trkpt lat="44.53548" lon="1.51969">
        <ele>313</ele>
        <time>2025-02-13T21:01:31Z</time>
      </trkpt>
      <trkpt lat="44.53532" lon="1.51965">
        <ele>314</ele>
        <time>2025-02-13T21:01:53Z</time>
      </trkpt>
      <trkpt lat="44.53513" lon="1.51966">
        <ele>316</ele>
        <time>2025-02-13T21:02:18Z</time>
      </trkpt>
      <trkpt lat="44.53449" lon="1.51965">
        <ele>320</ele>
        <time>2025-02-13T21:03:43Z</time>
      </trkpt>
      <trkpt lat="44.53398" lon="1.51981">
        <ele>328</ele>
        <time>2025-02-13T21:04:53Z</time>
      </trkpt>
      <trkpt lat="44.53377" lon="1.51979">
        <ele>329</ele>
        <time>2025-02-13T21:05:21Z</time>
      </trkpt>
      <trkpt lat="44.53374" lon="1.51975">
        <ele>328</ele>
        <time>2025-02-13T21:05:27Z</time>
      </trkpt>
      <trkpt lat="44.53354" lon="1.51967">
        <ele>328</ele>
        <time>2025-02-13T21:05:55Z</time>
      </trkpt>
      <trkpt lat="44.53328" lon="1.51964">
        <ele>330</ele>
        <time>2025-02-13T21:06:29Z</time>
      </trkpt>
      <trkpt lat="44.533" lon="1.51976">
        <ele>333</ele>
        <time>2025-02-13T21:07:08Z</time>
      </trkpt>
      <trkpt lat="44.53262" lon="1.51997">
        <ele>337</ele>
        <time>2025-02-13T21:08:03Z</time>
      </trkpt>
      <trkpt lat="44.5323" lon="1.52012">
        <ele>338</ele>
        <time>2025-02-13T21:08:48Z</time>
      </trkpt>
      <trkpt lat="44.53216" lon="1.52012">
        <ele>339</ele>
        <time>2025-02-13T21:09:07Z</time>
      </trkpt>
      <trkpt lat="44.5321" lon="1.52015">
        <ele>339</ele>
        <time>2025-02-13T21:09:15Z</time>
      </trkpt>
      <trkpt lat="44.53205" lon="1.52014">
        <ele>339</ele>
        <time>2025-02-13T21:09:22Z</time>
      </trkpt>
      <trkpt lat="44.53199" lon="1.52007">
        <ele>339</ele>
        <time>2025-02-13T21:09:32Z</time>
      </trkpt>
      <trkpt lat="44.53191" lon="1.52004">
        <ele>339</ele>
        <time>2025-02-13T21:09:43Z</time>
      </trkpt>
      <trkpt lat="44.53198" lon="1.52004">
        <ele>339</ele>
        <time>2025-02-13T21:09:53Z</time>
      </trkpt>
      <trkpt lat="44.53189" lon="1.52003">
        <ele>339</ele>
        <time>2025-02-13T21:10:05Z</time>
      </trkpt>
      <trkpt lat="44.53171" lon="1.51994">
        <ele>340</ele>
        <time>2025-02-13T21:10:30Z</time>
      </trkpt>
      <trkpt lat="44.53153" lon="1.5198">
        <ele>340</ele>
        <time>2025-02-13T21:10:58Z</time>
      </trkpt>
      <trkpt lat="44.53135" lon="1.51964">
        <ele>340</ele>
        <time>2025-02-13T21:11:26Z</time>
      </trkpt>
      <trkpt lat="44.53117" lon="1.51952">
        <ele>340</ele>
        <time>2025-02-13T21:11:53Z</time>
      </trkpt>
      <trkpt lat="44.53095" lon="1.5196">
        <ele>341</ele>
        <time>2025-02-13T21:12:23Z</time>
      </trkpt>
      <trkpt lat="44.53095" lon="1.51958">
        <ele>341</ele>
        <time>2025-02-13T21:12:25Z</time>
      </trkpt>
      <trkpt lat="44.53095" lon="1.51959">
        <ele>341</ele>
        <time>2025-02-13T21:12:26Z</time>
      </trkpt>
      <trkpt lat="44.53093" lon="1.51958">
        <ele>341</ele>
        <time>2025-02-13T21:12:29Z</time>
      </trkpt>
      <trkpt lat="44.53082" lon="1.51974">
        <ele>341</ele>
        <time>2025-02-13T21:12:50Z</time>
      </trkpt>
      <trkpt lat="44.5302" lon="1.52159">
        <ele>335</ele>
        <time>2025-02-13T21:16:04Z</time>
      </trkpt>
      <trkpt lat="44.53012" lon="1.52183">
        <ele>334</ele>
        <time>2025-02-13T21:16:30Z</time>
      </trkpt>
      <trkpt lat="44.52996" lon="1.5225">
        <ele>333</ele>
        <time>2025-02-13T21:17:37Z</time>
      </trkpt>
      <trkpt lat="44.52989" lon="1.52274">
        <ele>333</ele>
        <time>2025-02-13T21:18:02Z</time>
      </trkpt>
      <trkpt lat="44.52973" lon="1.52315">
        <ele>333</ele>
        <time>2025-02-13T21:18:46Z</time>
      </trkpt>
      <trkpt lat="44.52962" lon="1.52351">
        <ele>334</ele>
        <time>2025-02-13T21:19:23Z</time>
      </trkpt>
      <trkpt lat="44.5295" lon="1.52452">
        <ele>336</ele>
        <time>2025-02-13T21:21:01Z</time>
      </trkpt>
      <trkpt lat="44.52954" lon="1.52485">
        <ele>338</ele>
        <time>2025-02-13T21:21:32Z</time>
      </trkpt>
      <trkpt lat="44.52958" lon="1.52489">
        <ele>338</ele>
        <time>2025-02-13T21:21:39Z</time>
      </trkpt>
      <trkpt lat="44.52956" lon="1.52492">
        <ele>339</ele>
        <time>2025-02-13T21:21:43Z</time>
      </trkpt>
      <trkpt lat="44.52958" lon="1.52496">
        <ele>339</ele>
        <time>2025-02-13T21:21:48Z</time>
      </trkpt>
      <trkpt lat="44.52961" lon="1.52495">
        <ele>339</ele>
        <time>2025-02-13T21:21:52Z</time>
      </trkpt>
      <trkpt lat="44.52958" lon="1.52497">
        <ele>339</ele>
        <time>2025-02-13T21:21:56Z</time>
      </trkpt>
      <trkpt lat="44.52956" lon="1.52493">
        <ele>339</ele>
        <time>2025-02-13T21:22:01Z</time>
      </trkpt>
      <trkpt lat="44.52957" lon="1.52503">
        <ele>339</ele>
        <time>2025-02-13T21:22:10Z</time>
      </trkpt>
      <trkpt lat="44.52961" lon="1.5251">
        <ele>339</ele>
        <time>2025-02-13T21:22:19Z</time>
      </trkpt>
    </trkseg>
  </trk>
</gpx>